sensor_id;sensor_type;location;lat;lon;timestamp;temperature;humidity
42145;DHT22;27813;43.516;11.890;2023-02-15T00:02:55;-3275.30;86.40
42145;DHT22;27813;43.516;11.890;2023-02-15T00:06:59;-3275.30;86.40
42145;DHT22;27813;43.516;11.890;2023-02-15T00:11:03;-3275.30;86.60
42145;DHT22;27813;43.516;11.890;2023-02-15T00:15:08;-3275.30;86.60
42145;DHT22;27813;43.516;11.890;2023-02-15T00:19:12;-3275.30;86.20
42145;DHT22;27813;43.516;11.890;2023-02-15T00:23:16;-3275.20;86.10
42145;DHT22;27813;43.516;11.890;2023-02-15T00:27:20;-3275.10;86.10
42145;DHT22;27813;43.516;11.890;2023-02-15T05:32:53;-3273.60;86.00
42145;DHT22;27813;43.516;11.890;2023-02-15T05:36:57;-3273.60;86.00
42145;DHT22;27813;43.516;11.890;2023-02-15T05:41:01;-3273.60;86.10
42145;DHT22;27813;43.516;11.890;2023-02-15T05:45:04;-3273.60;86.30
42145;DHT22;27813;43.516;11.890;2023-02-15T05:49:08;-3273.60;86.10
42145;DHT22;27813;43.516;11.890;2023-02-15T05:53:12;-3273.60;86.30
42145;DHT22;27813;43.516;11.890;2023-02-15T05:57:16;-3273.60;86.60
42145;DHT22;27813;43.516;11.890;2023-02-15T06:01:19;-3273.60;86.60
42145;DHT22;27813;43.516;11.890;2023-02-15T06:05:25;-3273.50;86.40
42145;DHT22;27813;43.516;11.890;2023-02-15T06:09:29;-3273.50;86.50
42145;DHT22;27813;43.516;11.890;2023-02-15T06:13:33;-3273.50;86.40
42145;DHT22;27813;43.516;11.890;2023-02-15T06:17:41;-3273.40;86.50
42145;DHT22;27813;43.516;11.890;2023-02-15T06:21:45;-3273.40;86.50
42145;DHT22;27813;43.516;11.890;2023-02-15T06:25:48;-3273.50;86.80
42145;DHT22;27813;43.516;11.890;2023-02-15T06:29:52;-3273.50;87.10
42145;DHT22;27813;43.516;11.890;2023-02-15T06:33:56;-3273.50;87.00
42145;DHT22;27813;43.516;11.890;2023-02-15T06:38:04;-3273.60;87.10
42145;DHT22;27813;43.516;11.890;2023-02-15T06:42:07;-3273.60;87.10
42145;DHT22;27813;43.516;11.890;2023-02-15T06:46:11;-3273.70;87.00
42145;DHT22;27813;43.516;11.890;2023-02-15T06:50:15;-3273.80;87.00
42145;DHT22;27813;43.516;11.890;2023-02-15T06:54:18;-3273.90;87.00
42145;DHT22;27813;43.516;11.890;2023-02-15T06:58:22;-3274.10;87.10
42145;DHT22;27813;43.516;11.890;2023-02-15T07:02:25;-3274.20;86.90
42145;DHT22;27813;43.516;11.890;2023-02-15T07:06:32;-3274.30;86.90
42145;DHT22;27813;43.516;11.890;2023-02-15T07:10:36;-3274.30;86.90
42145;DHT22;27813;43.516;11.890;2023-02-15T07:14:40;-3274.30;87.00
42145;DHT22;27813;43.516;11.890;2023-02-15T07:18:43;-3274.30;87.10
42145;DHT22;27813;43.516;11.890;2023-02-15T07:22:47;-3274.40;87.20
42145;DHT22;27813;43.516;11.890;2023-02-15T07:26:51;-3274.50;87.40
42145;DHT22;27813;43.516;11.890;2023-02-15T07:30:55;-3274.60;87.60
42145;DHT22;27813;43.516;11.890;2023-02-15T07:35:00;-3274.70;87.60
42145;DHT22;27813;43.516;11.890;2023-02-15T07:39:04;-3274.80;87.60
42145;DHT22;27813;43.516;11.890;2023-02-15T07:43:08;-3275.00;87.50
42145;DHT22;27813;43.516;11.890;2023-02-15T07:47:11;-3275.10;87.30
42145;DHT22;27813;43.516;11.890;2023-02-15T07:51:15;-3275.30;87.30
42145;DHT22;27813;43.516;11.890;2023-02-15T07:55:19;-3275.40;87.30
42145;DHT22;27813;43.516;11.890;2023-02-15T07:59:22;-3275.50;87.30
42145;DHT22;27813;43.516;11.890;2023-02-15T08:03:27;-3275.70;87.20
42145;DHT22;27813;43.516;11.890;2023-02-15T08:07:32;-3275.90;87.00
42145;DHT22;27813;43.516;11.890;2023-02-15T08:11:37;-3276.00;86.80
42145;DHT22;27813;43.516;11.890;2023-02-15T08:15:49;-3276.10;86.60
42145;DHT22;27813;43.516;11.890;2023-02-15T08:19:52;-3276.30;86.60
42145;DHT22;27813;43.516;11.890;2023-02-15T08:23:56;-3276.40;86.50
42145;DHT22;27813;43.516;11.890;2023-02-15T08:28:00;-3276.50;86.20
42145;DHT22;27813;43.516;11.890;2023-02-15T08:32:05;-3276.60;86.10
42145;DHT22;27813;43.516;11.890;2023-02-15T08:36:13;0.00;86.00
42145;DHT22;27813;43.516;11.890;2023-02-15T08:40:17;0.00;85.90
42145;DHT22;27813;43.516;11.890;2023-02-15T08:44:20;0.00;85.80
42145;DHT22;27813;43.516;11.890;2023-02-15T08:48:24;0.10;85.70
42145;DHT22;27813;43.516;11.890;2023-02-15T08:52:27;0.30;85.70
42145;DHT22;27813;43.516;11.890;2023-02-15T08:56:35;0.40;85.50
42145;DHT22;27813;43.516;11.890;2023-02-15T09:00:38;0.60;85.40
42145;DHT22;27813;43.516;11.890;2023-02-15T09:04:44;0.70;85.10
42145;DHT22;27813;43.516;11.890;2023-02-15T09:08:48;0.80;85.00
42145;DHT22;27813;43.516;11.890;2023-02-15T09:12:52;0.90;84.90
42145;DHT22;27813;43.516;11.890;2023-02-15T09:16:56;1.00;84.60
42145;DHT22;27813;43.516;11.890;2023-02-15T09:21:19;1.10;84.60
42145;DHT22;27813;43.516;11.890;2023-02-15T09:25:23;1.20;84.50
42145;DHT22;27813;43.516;11.890;2023-02-15T09:29:27;1.40;84.50
42145;DHT22;27813;43.516;11.890;2023-02-15T09:33:30;1.50;84.50
42145;DHT22;27813;43.516;11.890;2023-02-15T09:37:34;1.70;84.20
42145;DHT22;27813;43.516;11.890;2023-02-15T09:41:56;1.90;84.00
42145;DHT22;27813;43.516;11.890;2023-02-15T09:46:26;2.10;83.60
42145;DHT22;27813;43.516;11.890;2023-02-15T09:54:47;2.60;82.80
42145;DHT22;27813;43.516;11.890;2023-02-15T09:58:56;2.80;82.40
42145;DHT22;27813;43.516;11.890;2023-02-15T10:03:15;2.90;82.20
42145;DHT22;27813;43.516;11.890;2023-02-15T10:15:53;3.50;81.60
42145;DHT22;27813;43.516;11.890;2023-02-15T10:20:08;3.70;81.30
42145;DHT22;27813;43.516;11.890;2023-02-15T10:28:26;3.90;81.00
42145;DHT22;27813;43.516;11.890;2023-02-15T10:32:34;4.10;80.80
42145;DHT22;27813;43.516;11.890;2023-02-15T10:36:51;4.20;80.70
42145;DHT22;27813;43.516;11.890;2023-02-15T10:45:06;4.50;80.20
42145;DHT22;27813;43.516;11.890;2023-02-15T10:50:03;4.50;80.10
42145;DHT22;27813;43.516;11.890;2023-02-15T11:01:58;5.10;79.60
42145;DHT22;27813;43.516;11.890;2023-02-15T11:06:18;5.20;79.40
42145;DHT22;27813;43.516;11.890;2023-02-15T11:10:30;5.40;79.10
42145;DHT22;27813;43.516;11.890;2023-02-15T11:14:44;5.50;78.80
42145;DHT22;27813;43.516;11.890;2023-02-15T11:18:51;5.50;78.60
42145;DHT22;27813;43.516;11.890;2023-02-15T11:22:54;5.60;78.50
42145;DHT22;27813;43.516;11.890;2023-02-15T11:27:05;5.70;78.50
42145;DHT22;27813;43.516;11.890;2023-02-15T11:31:20;5.90;78.40
42145;DHT22;27813;43.516;11.890;2023-02-15T11:35:31;6.00;78.20
42145;DHT22;27813;43.516;11.890;2023-02-15T11:39:35;6.20;78.10
42145;DHT22;27813;43.516;11.890;2023-02-15T11:43:45;6.30;77.80
42145;DHT22;27813;43.516;11.890;2023-02-15T11:47:51;6.40;77.60
42145;DHT22;27813;43.516;11.890;2023-02-15T11:51:56;6.40;77.60
42145;DHT22;27813;43.516;11.890;2023-02-15T11:56:00;6.40;77.60
42145;DHT22;27813;43.516;11.890;2023-02-15T12:00:25;6.50;77.70
42145;DHT22;27813;43.516;11.890;2023-02-15T12:04:36;6.70;77.40
42145;DHT22;27813;43.516;11.890;2023-02-15T12:08:43;6.90;77.00
42145;DHT22;27813;43.516;11.890;2023-02-15T12:12:54;7.20;76.70
42145;DHT22;27813;43.516;11.890;2023-02-15T12:17:12;7.30;76.60
42145;DHT22;27813;43.516;11.890;2023-02-15T12:21:27;7.50;76.50
42145;DHT22;27813;43.516;11.890;2023-02-15T12:29:41;7.80;76.10
42145;DHT22;27813;43.516;11.890;2023-02-15T12:33:46;8.00;75.80
42145;DHT22;27813;43.516;11.890;2023-02-15T12:37:54;8.30;75.20
42145;DHT22;27813;43.516;11.890;2023-02-15T12:42:00;8.40;74.80
42145;DHT22;27813;43.516;11.890;2023-02-15T12:50:40;8.80;73.70
42145;DHT22;27813;43.516;11.890;2023-02-15T12:54:44;8.90;73.60
42145;DHT22;27813;43.516;11.890;2023-02-15T12:58:48;9.00;73.30
42145;DHT22;27813;43.516;11.890;2023-02-15T13:03:14;9.10;73.00
42145;DHT22;27813;43.516;11.890;2023-02-15T13:07:19;9.20;72.60
42145;DHT22;27813;43.516;11.890;2023-02-15T13:11:27;9.20;72.60
42145;DHT22;27813;43.516;11.890;2023-02-15T13:15:36;9.40;72.50
42145;DHT22;27813;43.516;11.890;2023-02-15T13:23:49;9.50;71.90
42145;DHT22;27813;43.516;11.890;2023-02-15T13:27:55;9.60;71.60
42145;DHT22;27813;43.516;11.890;2023-02-15T13:32:23;9.60;71.60
42145;DHT22;27813;43.516;11.890;2023-02-15T13:36:29;9.80;71.30
42145;DHT22;27813;43.516;11.890;2023-02-15T13:40:37;9.90;70.90
42145;DHT22;27813;43.516;11.890;2023-02-15T13:44:53;10.00;70.80
42145;DHT22;27813;43.516;11.890;2023-02-15T13:49:04;10.00;70.60
42145;DHT22;27813;43.516;11.890;2023-02-15T13:53:20;10.10;70.60
42145;DHT22;27813;43.516;11.890;2023-02-15T14:01:44;10.10;70.50
42145;DHT22;27813;43.516;11.890;2023-02-15T14:19:09;10.50;69.70
42145;DHT22;27813;43.516;11.890;2023-02-15T14:22:43;10.50;69.50
42145;DHT22;27813;43.516;11.890;2023-02-15T14:30:54;10.50;69.60
42145;DHT22;27813;43.516;11.890;2023-02-15T14:35:00;10.60;69.40
42145;DHT22;27813;43.516;11.890;2023-02-15T14:48:40;11.00;68.50
42145;DHT22;27813;43.516;11.890;2023-02-15T14:52:17;11.00;68.10
42145;DHT22;27813;43.516;11.890;2023-02-15T14:56:21;11.20;67.70
42145;DHT22;27813;43.516;11.890;2023-02-15T15:00:33;11.20;67.40
42145;DHT22;27813;43.516;11.890;2023-02-15T15:04:41;11.20;67.20
42145;DHT22;27813;43.516;11.890;2023-02-15T15:08:45;11.20;67.10
42145;DHT22;27813;43.516;11.890;2023-02-15T15:12:52;11.20;66.80
42145;DHT22;27813;43.516;11.890;2023-02-15T15:16:57;11.20;66.60
42145;DHT22;27813;43.516;11.890;2023-02-15T15:21:00;11.10;66.60
42145;DHT22;27813;43.516;11.890;2023-02-15T15:29:39;11.10;66.50
42145;DHT22;27813;43.516;11.890;2023-02-15T15:33:58;11.10;66.50
42145;DHT22;27813;43.516;11.890;2023-02-15T15:51:05;11.00;66.10
42145;DHT22;27813;43.516;11.890;2023-02-15T15:55:22;10.90;66.30
42145;DHT22;27813;43.516;11.890;2023-02-15T15:59:31;10.80;66.20
42145;DHT22;27813;43.516;11.890;2023-02-15T16:03:35;10.60;66.40
42145;DHT22;27813;43.516;11.890;2023-02-15T16:07:39;10.40;66.70
42145;DHT22;27813;43.516;11.890;2023-02-15T16:11:48;10.30;66.90
42145;DHT22;27813;43.516;11.890;2023-02-15T16:15:53;10.10;67.10
42145;DHT22;27813;43.516;11.890;2023-02-15T16:20:11;10.00;67.30
42145;DHT22;27813;43.516;11.890;2023-02-15T16:28:39;9.70;67.70
42145;DHT22;27813;43.516;11.890;2023-02-15T16:32:43;9.50;67.90
42145;DHT22;27813;43.516;11.890;2023-02-15T16:36:46;9.40;68.10
42145;DHT22;27813;43.516;11.890;2023-02-15T16:40:53;9.10;68.50
42145;DHT22;27813;43.516;11.890;2023-02-15T16:45:02;8.70;68.80
42145;DHT22;27813;43.516;11.890;2023-02-15T16:49:27;8.40;69.60
42145;DHT22;27813;43.516;11.890;2023-02-15T16:53:31;7.90;70.40
42145;DHT22;27813;43.516;11.890;2023-02-15T16:57:36;7.60;71.10
42145;DHT22;27813;43.516;11.890;2023-02-15T17:01:41;7.20;71.60
42145;DHT22;27813;43.516;11.890;2023-02-15T17:05:51;6.90;72.20
42145;DHT22;27813;43.516;11.890;2023-02-15T17:09:55;6.50;72.60
42145;DHT22;27813;43.516;11.890;2023-02-15T17:18:17;5.90;73.80
42145;DHT22;27813;43.516;11.890;2023-02-15T17:22:25;5.80;73.90
42145;DHT22;27813;43.516;11.890;2023-02-15T17:26:34;5.50;74.30
42145;DHT22;27813;43.516;11.890;2023-02-15T17:30:38;5.50;74.60
42145;DHT22;27813;43.516;11.890;2023-02-15T17:42:59;5.30;74.80
42145;DHT22;27813;43.516;11.890;2023-02-15T17:47:05;5.20;74.80
42145;DHT22;27813;43.516;11.890;2023-02-15T17:51:11;5.10;75.00
42145;DHT22;27813;43.516;11.890;2023-02-15T17:55:17;5.00;75.20
42145;DHT22;27813;43.516;11.890;2023-02-15T17:59:41;4.80;75.60
42145;DHT22;27813;43.516;11.890;2023-02-15T18:04:14;4.70;75.80
42145;DHT22;27813;43.516;11.890;2023-02-15T18:08:36;4.50;76.30
42145;DHT22;27813;43.516;11.890;2023-02-15T18:12:59;4.60;76.30
42145;DHT22;27813;43.516;11.890;2023-02-15T18:17:03;4.40;76.20
42145;DHT22;27813;43.516;11.890;2023-02-15T18:21:07;4.40;76.70
42145;DHT22;27813;43.516;11.890;2023-02-15T18:25:15;4.40;76.60
42145;DHT22;27813;43.516;11.890;2023-02-15T18:29:19;4.30;76.60
42145;DHT22;27813;43.516;11.890;2023-02-15T18:33:37;4.20;77.00
42145;DHT22;27813;43.516;11.890;2023-02-15T18:37:47;4.10;77.10
42145;DHT22;27813;43.516;11.890;2023-02-15T18:41:52;4.00;77.40
42145;DHT22;27813;43.516;11.890;2023-02-15T18:45:56;3.80;77.60
42145;DHT22;27813;43.516;11.890;2023-02-15T18:50:00;3.60;78.00
42145;DHT22;27813;43.516;11.890;2023-02-15T18:54:03;3.60;78.20
42145;DHT22;27813;43.516;11.890;2023-02-15T18:58:08;3.50;78.40
42145;DHT22;27813;43.516;11.890;2023-02-15T19:02:17;3.40;78.70
42145;DHT22;27813;43.516;11.890;2023-02-15T19:06:24;3.20;78.90
42145;DHT22;27813;43.516;11.890;2023-02-15T19:10:29;3.10;79.20
42145;DHT22;27813;43.516;11.890;2023-02-15T19:14:37;3.00;79.60
42145;DHT22;27813;43.516;11.890;2023-02-15T19:18:42;3.00;79.60
42145;DHT22;27813;43.516;11.890;2023-02-15T19:22:46;3.00;79.50
42145;DHT22;27813;43.516;11.890;2023-02-15T19:26:55;2.90;79.80
42145;DHT22;27813;43.516;11.890;2023-02-15T19:30:58;2.90;79.90
42145;DHT22;27813;43.516;11.890;2023-02-15T19:35:02;2.80;79.90
42145;DHT22;27813;43.516;11.890;2023-02-15T19:39:07;2.60;80.10
42145;DHT22;27813;43.516;11.890;2023-02-15T19:43:17;2.50;80.50
42145;DHT22;27813;43.516;11.890;2023-02-15T19:47:29;2.50;80.50
42145;DHT22;27813;43.516;11.890;2023-02-15T19:51:37;2.40;80.70
42145;DHT22;27813;43.516;11.890;2023-02-15T19:55:41;2.40;80.80
42145;DHT22;27813;43.516;11.890;2023-02-15T19:59:45;2.30;80.90
42145;DHT22;27813;43.516;11.890;2023-02-15T20:03:48;2.10;81.30
42145;DHT22;27813;43.516;11.890;2023-02-15T20:07:56;2.00;81.60
42145;DHT22;27813;43.516;11.890;2023-02-15T20:12:22;2.00;81.70
42145;DHT22;27813;43.516;11.890;2023-02-15T20:16:48;2.00;81.70
42145;DHT22;27813;43.516;11.890;2023-02-15T20:20:59;2.00;81.40
42145;DHT22;27813;43.516;11.890;2023-02-15T20:25:22;1.90;81.50
42145;DHT22;27813;43.516;11.890;2023-02-15T20:29:38;1.80;81.80
42145;DHT22;27813;43.516;11.890;2023-02-15T20:33:53;1.60;82.20
42145;DHT22;27813;43.516;11.890;2023-02-15T20:37:58;1.50;82.60
42145;DHT22;27813;43.516;11.890;2023-02-15T20:42:03;1.40;83.10
42145;DHT22;27813;43.516;11.890;2023-02-15T20:46:06;1.40;83.30
42145;DHT22;27813;43.516;11.890;2023-02-15T20:50:10;1.30;83.20
42145;DHT22;27813;43.516;11.890;2023-02-15T20:54:18;1.20;83.30
42145;DHT22;27813;43.516;11.890;2023-02-15T20:58:24;1.10;83.50
42145;DHT22;27813;43.516;11.890;2023-02-15T21:02:29;1.20;83.90
42145;DHT22;27813;43.516;11.890;2023-02-15T21:06:34;1.20;83.70
42145;DHT22;27813;43.516;11.890;2023-02-15T21:10:43;1.30;83.40
42145;DHT22;27813;43.516;11.890;2023-02-15T21:14:51;1.20;83.30
42145;DHT22;27813;43.516;11.890;2023-02-15T21:18:56;1.10;83.50
42145;DHT22;27813;43.516;11.890;2023-02-15T21:23:02;0.90;83.80
42145;DHT22;27813;43.516;11.890;2023-02-15T21:27:12;0.80;83.90
42145;DHT22;27813;43.516;11.890;2023-02-15T21:31:25;0.80;84.40
42145;DHT22;27813;43.516;11.890;2023-02-15T21:35:36;0.80;84.50
42145;DHT22;27813;43.516;11.890;2023-02-15T21:39:47;0.80;84.40
42145;DHT22;27813;43.516;11.890;2023-02-15T21:43:51;0.70;84.50
42145;DHT22;27813;43.516;11.890;2023-02-15T21:48:13;0.70;84.40
42145;DHT22;27813;43.516;11.890;2023-02-15T21:52:19;0.60;84.40
42145;DHT22;27813;43.516;11.890;2023-02-15T21:56:26;0.60;84.60
42145;DHT22;27813;43.516;11.890;2023-02-15T22:00:56;0.60;84.60
42145;DHT22;27813;43.516;11.890;2023-02-15T22:05:05;0.60;84.60
42145;DHT22;27813;43.516;11.890;2023-02-15T22:09:23;0.50;84.60
42145;DHT22;27813;43.516;11.890;2023-02-15T22:13:54;0.50;84.80
42145;DHT22;27813;43.516;11.890;2023-02-15T22:18:05;0.40;85.10
42145;DHT22;27813;43.516;11.890;2023-02-15T22:22:11;0.50;85.20
42145;DHT22;27813;43.516;11.890;2023-02-15T22:26:22;0.50;84.90
42145;DHT22;27813;43.516;11.890;2023-02-15T22:30:48;0.40;84.80
42145;DHT22;27813;43.516;11.890;2023-02-15T22:34:55;0.40;85.00
42145;DHT22;27813;43.516;11.890;2023-02-15T22:39:01;0.30;85.20
42145;DHT22;27813;43.516;11.890;2023-02-15T22:43:05;0.30;85.20
42145;DHT22;27813;43.516;11.890;2023-02-15T22:47:34;0.10;85.30
42145;DHT22;27813;43.516;11.890;2023-02-15T22:51:53;0.10;85.50
42145;DHT22;27813;43.516;11.890;2023-02-15T22:56:03;0.00;85.50
42145;DHT22;27813;43.516;11.890;2023-02-15T23:00:26;0.00;85.70
42145;DHT22;27813;43.516;11.890;2023-02-15T23:04:33;0.00;85.80
42145;DHT22;27813;43.516;11.890;2023-02-15T23:08:40;-3276.70;85.90
42145;DHT22;27813;43.516;11.890;2023-02-15T23:13:29;-3276.60;86.00
42145;DHT22;27813;43.516;11.890;2023-02-15T23:18:20;-3276.60;86.20
42145;DHT22;27813;43.516;11.890;2023-02-15T23:22:31;-3276.60;86.20
42145;DHT22;27813;43.516;11.890;2023-02-15T23:27:02;-3276.70;86.10
42145;DHT22;27813;43.516;11.890;2023-02-15T23:31:47;0.00;85.70
42145;DHT22;27813;43.516;11.890;2023-02-15T23:36:03;-3276.70;85.70
42145;DHT22;27813;43.516;11.890;2023-02-15T23:40:14;-3276.60;86.10
42145;DHT22;27813;43.516;11.890;2023-02-15T23:44:59;-3276.60;86.00
42145;DHT22;27813;43.516;11.890;2023-02-15T23:49:14;-3276.50;85.90
42145;DHT22;27813;43.516;11.890;2023-02-15T23:53:19;-3276.40;86.20
42145;DHT22;27813;43.516;11.890;2023-02-15T23:57:23;-3276.40;86.30
